createdAt,value
2023-05-17T00:00:05.809Z,1178.00
2023-05-17T00:01:05.876Z,1177.00
2023-05-17T00:02:05.889Z,1174.00
2023-05-17T00:03:06.002Z,1172.00
2023-05-17T00:04:07.020Z,1169.00
2023-05-17T00:05:07.029Z,1171.00
2023-05-17T00:06:07.128Z,1174.00
2023-05-17T00:07:06.125Z,1175.00
2023-05-17T00:08:06.171Z,1177.00
2023-05-17T00:09:07.217Z,1180.00
2023-05-17T00:10:07.270Z,1179.00
2023-05-17T00:11:07.336Z,1175.00
2023-05-17T00:12:06.367Z,1174.00
2023-05-17T00:13:07.405Z,1172.00
2023-05-17T00:14:06.462Z,1171.00
2023-05-17T00:15:07.484Z,1170.00
2023-05-17T00:16:07.541Z,1168.00
2023-05-17T00:17:06.576Z,1164.00
2023-05-17T00:18:07.716Z,1167.00
2023-05-17T00:19:07.840Z,1165.00
2023-05-17T00:20:07.820Z,1166.00
2023-05-17T00:21:07.774Z,1163.00
2023-05-17T00:22:07.796Z,1162.00
2023-05-17T00:23:07.852Z,1164.00
2023-05-17T00:24:07.915Z,1162.00
2023-05-17T00:25:07.965Z,1162.00
2023-05-17T00:26:06.991Z,1162.00
2023-05-17T00:27:07.218Z,1162.00
2023-05-17T00:28:08.077Z,1157.00
2023-05-17T00:29:08.151Z,1156.00
2023-05-17T00:30:08.198Z,1159.00
2023-05-17T00:31:08.237Z,1157.00
2023-05-17T00:32:07.283Z,1155.00
2023-05-17T00:33:07.348Z,1155.00
2023-05-17T00:34:08.375Z,1155.00
2023-05-17T00:35:07.449Z,1155.00
2023-05-17T00:36:07.476Z,1153.00
2023-05-17T00:37:08.541Z,1153.00
2023-05-17T00:38:07.587Z,1154.00
2023-05-17T00:39:08.648Z,1156.00
2023-05-17T00:40:08.686Z,1157.00
2023-05-17T00:41:08.717Z,1159.00
2023-05-17T00:42:08.781Z,1160.00
2023-05-17T00:43:08.968Z,1160.00
2023-05-17T00:44:07.884Z,1156.00
2023-05-17T00:45:07.943Z,1153.00
2023-05-17T00:46:08.988Z,1151.00
2023-05-17T00:47:09.043Z,1153.00
2023-05-17T00:48:09.120Z,1151.00
2023-05-17T00:49:08.133Z,1150.00
2023-05-17T00:50:08.159Z,1150.00
2023-05-17T00:51:09.198Z,1149.00
2023-05-17T00:52:08.243Z,1149.00
2023-05-17T00:53:09.288Z,1149.00
2023-05-17T00:54:09.337Z,1146.00
2023-05-17T00:55:08.406Z,1146.00
2023-05-17T00:56:09.447Z,1143.00
2023-05-17T00:57:09.496Z,1144.00
2023-05-17T00:58:08.537Z,1143.00
2023-05-17T00:59:09.702Z,1141.00
2023-05-17T01:00:08.660Z,1142.00
2023-05-17T01:01:09.721Z,1140.00
2023-05-17T01:02:09.743Z,1141.00
2023-05-17T01:03:08.928Z,1141.00
2023-05-17T01:04:08.922Z,1141.00
2023-05-17T01:05:09.903Z,1139.00
2023-05-17T01:06:08.958Z,1137.00
2023-05-17T01:07:08.994Z,1137.00
2023-05-17T01:08:09.052Z,1136.00
2023-05-17T01:09:10.152Z,1134.00
2023-05-17T01:10:10.150Z,1137.00
2023-05-17T01:11:10.202Z,1139.00
2023-05-17T01:12:10.228Z,1139.00
2023-05-17T01:13:09.292Z,1138.00
2023-05-17T01:14:10.387Z,1135.00
2023-05-17T01:15:10.493Z,1135.00
2023-05-17T01:16:09.422Z,1136.00
2023-05-17T01:17:09.476Z,1135.00
2023-05-17T01:18:09.724Z,1134.00
2023-05-17T01:19:10.665Z,1135.00
2023-05-17T01:20:09.712Z,1133.00
2023-05-17T01:21:09.671Z,1135.00
2023-05-17T01:22:09.715Z,1133.00
2023-05-17T01:23:09.762Z,1133.00
2023-05-17T01:24:09.830Z,1133.00
2023-05-17T01:25:10.867Z,1133.00
2023-05-17T01:26:10.943Z,1132.00
2023-05-17T01:27:10.967Z,1131.00
2023-05-17T01:28:11.011Z,1129.00
2023-05-17T01:29:11.081Z,1127.00
2023-05-17T01:30:11.110Z,1125.00
2023-05-17T01:31:11.285Z,1124.00
2023-05-17T01:32:10.219Z,1122.00
2023-05-17T01:33:10.415Z,1122.00
2023-05-17T01:34:11.308Z,1122.00
2023-05-17T01:35:10.350Z,1119.00
2023-05-17T01:36:10.412Z,1119.00
2023-05-17T01:37:11.474Z,1118.00
2023-05-17T01:38:11.521Z,1118.00
2023-05-17T01:39:11.569Z,1121.00
2023-05-17T01:40:11.630Z,1120.00
2023-05-17T01:41:10.656Z,1118.00
2023-05-17T01:42:10.711Z,1115.00
2023-05-17T01:43:11.762Z,1112.00
2023-05-17T01:44:10.810Z,1112.00
2023-05-17T01:45:11.863Z,1112.00
2023-05-17T01:46:11.903Z,1113.00
2023-05-17T01:47:10.989Z,1113.00
2023-05-17T01:48:12.077Z,1113.00
2023-05-17T01:49:12.083Z,1114.00
2023-05-17T01:50:12.108Z,1114.00
2023-05-17T01:51:12.158Z,1113.00
2023-05-17T01:52:12.208Z,1110.00
2023-05-17T01:53:11.263Z,1106.00
2023-05-17T01:54:12.323Z,1106.00
2023-05-17T01:55:11.360Z,1110.00
2023-05-17T01:56:13.167Z,1112.00
2023-05-17T01:57:12.458Z,1110.00
2023-05-17T01:58:12.496Z,1114.00
2023-05-17T01:59:11.574Z,1115.00
2023-05-17T02:00:12.688Z,1115.00
2023-05-17T02:01:11.645Z,1111.00
2023-05-17T02:02:12.742Z,1112.00
2023-05-17T02:03:12.865Z,1111.00
2023-05-17T02:04:12.949Z,1112.00
2023-05-17T02:05:12.944Z,1109.00
2023-05-17T02:06:11.923Z,1107.00
2023-05-17T02:07:12.958Z,1109.00
2023-05-17T02:08:12.075Z,1109.00
2023-05-17T02:09:13.085Z,1108.00
2023-05-17T02:10:12.146Z,1108.00
2023-05-17T02:11:13.185Z,1106.00
2023-05-17T02:12:12.236Z,1108.00
2023-05-17T02:13:13.309Z,1108.00
2023-05-17T02:14:13.330Z,1104.00
2023-05-17T02:15:12.388Z,1103.00
2023-05-17T02:16:13.466Z,1105.00
2023-05-17T02:17:13.610Z,1104.00
2023-05-17T02:18:13.805Z,1106.00
2023-05-17T02:19:12.880Z,1107.00
2023-05-17T02:20:13.668Z,1107.00
2023-05-17T02:21:12.740Z,1109.00
2023-05-17T02:22:12.807Z,1108.00
2023-05-17T02:23:13.849Z,1109.00
2023-05-17T02:24:13.894Z,1109.00
2023-05-17T02:25:13.971Z,1109.00
2023-05-17T02:26:14.016Z,1109.00
2023-05-17T02:27:13.090Z,1107.00
2023-05-17T02:28:14.121Z,1105.00
2023-05-17T02:29:13.215Z,1106.00
2023-05-17T02:30:15.732Z,1107.00
2023-05-17T02:31:13.240Z,1107.00
2023-05-17T02:32:13.257Z,1106.00
2023-05-17T02:33:13.421Z,1108.00
2023-05-17T02:34:14.221Z,1108.00
2023-05-17T02:35:14.344Z,1108.00
2023-05-17T02:36:14.192Z,1104.00
2023-05-17T02:37:14.217Z,1100.00
2023-05-17T02:38:13.186Z,1102.00
2023-05-17T02:39:14.192Z,1102.00
2023-05-17T02:40:14.223Z,1105.00
2023-05-17T02:41:14.161Z,1106.00
2023-05-17T02:42:13.163Z,1105.00
2023-05-17T02:43:14.167Z,1104.00
2023-05-17T02:44:14.171Z,1100.00
2023-05-17T02:45:13.157Z,1102.00
2023-05-17T02:46:13.123Z,1099.00
2023-05-17T02:47:13.139Z,1101.00
2023-05-17T02:48:14.171Z,1100.00
2023-05-17T02:49:14.133Z,1099.00
2023-05-17T02:50:13.108Z,1095.00
2023-05-17T02:51:13.351Z,1096.00
2023-05-17T02:52:13.087Z,1098.00
2023-05-17T02:53:14.079Z,1101.00
2023-05-17T02:54:14.079Z,1100.00
2023-05-17T02:55:14.065Z,1098.00
2023-05-17T02:56:14.107Z,1100.00
2023-05-17T02:57:13.183Z,1098.00
2023-05-17T02:58:14.220Z,1099.00
2023-05-17T02:59:14.265Z,1098.00
2023-05-17T03:00:14.337Z,1095.00
2023-05-17T03:01:14.391Z,1096.00
2023-05-17T03:02:14.513Z,1094.00
2023-05-17T03:03:13.593Z,1094.00
2023-05-17T03:04:13.659Z,1096.00
2023-05-17T03:05:14.638Z,1097.00
2023-05-17T03:06:13.687Z,1095.00
2023-05-17T03:07:14.825Z,1092.00
2023-05-17T03:08:14.775Z,1092.00
2023-05-17T03:09:13.854Z,1090.00
2023-05-17T03:10:13.894Z,1086.00
2023-05-17T03:11:13.940Z,1087.00
2023-05-17T03:12:15.024Z,1086.00
2023-05-17T03:13:15.055Z,1086.00
2023-05-17T03:14:14.113Z,1089.00
2023-05-17T03:15:14.197Z,1090.00
2023-05-17T03:16:15.219Z,1089.00
2023-05-17T03:17:14.272Z,1090.00
2023-05-17T03:18:14.446Z,1093.00
2023-05-17T03:19:15.431Z,1093.00
2023-05-17T03:20:14.439Z,1092.00
2023-05-17T03:21:15.488Z,1095.00
2023-05-17T03:22:15.538Z,1094.00
2023-05-17T03:23:15.689Z,1093.00
2023-05-17T03:24:14.640Z,1093.00
2023-05-17T03:25:15.723Z,1091.00
2023-05-17T03:26:15.770Z,1090.00
2023-05-17T03:27:15.869Z,1090.00
2023-05-17T03:28:15.877Z,1086.00
2023-05-17T03:29:15.953Z,1085.00
2023-05-17T03:30:16.025Z,1085.00
2023-05-17T03:31:16.070Z,1083.00
2023-05-17T03:32:15.117Z,1080.00
2023-05-17T03:33:16.231Z,1081.00
2023-05-17T03:34:16.256Z,1082.00
2023-05-17T03:35:15.325Z,1079.00
2023-05-17T03:36:15.355Z,1076.00
2023-05-17T03:37:15.429Z,1074.00
2023-05-17T03:38:16.469Z,1076.00
2023-05-17T03:39:15.687Z,1078.00
2023-05-17T03:40:15.611Z,1079.00
2023-05-17T03:41:15.656Z,1077.00
2023-05-17T03:42:15.720Z,1075.00
2023-05-17T03:43:15.781Z,1072.00
2023-05-17T03:44:15.849Z,1072.00
2023-05-17T03:45:15.901Z,1071.00
2023-05-17T03:46:16.957Z,1071.00
2023-05-17T03:47:17.016Z,1073.00
2023-05-17T03:48:17.147Z,1073.00
2023-05-17T03:49:16.263Z,1074.00
2023-05-17T03:50:17.239Z,1073.00
2023-05-17T03:51:17.306Z,1073.00
2023-05-17T03:52:16.340Z,1071.00
2023-05-17T03:53:16.386Z,1070.00
2023-05-17T03:54:17.584Z,1070.00
2023-05-17T03:55:16.530Z,1074.00
2023-05-17T03:56:17.594Z,1073.00
2023-05-17T03:57:16.636Z,1074.00
2023-05-17T03:58:16.704Z,1074.00
2023-05-17T03:59:17.760Z,1073.00
2023-05-17T04:00:16.837Z,1071.00
2023-05-17T04:01:17.918Z,1073.00
2023-05-17T04:02:16.975Z,1070.00
2023-05-17T04:03:20.174Z,1068.00
2023-05-17T04:04:17.113Z,1066.00
2023-05-17T04:05:17.100Z,1066.00
2023-05-17T04:06:16.982Z,1065.00
2023-05-17T04:07:16.985Z,1065.00
2023-05-17T04:08:16.986Z,1064.00
2023-05-17T04:09:17.973Z,1064.00
2023-05-17T04:10:17.081Z,1064.00
2023-05-17T04:11:17.951Z,1066.00
2023-05-17T04:12:16.968Z,1066.00
2023-05-17T04:13:17.999Z,1062.00
2023-05-17T04:14:17.940Z,1058.00
2023-05-17T04:15:16.926Z,1059.00
2023-05-17T04:16:17.918Z,1058.00
2023-05-17T04:17:17.903Z,1055.00
2023-05-17T04:18:16.979Z,1055.00
2023-05-17T04:19:16.990Z,1057.00
2023-05-17T04:20:17.912Z,1059.00
2023-05-17T04:21:17.869Z,1061.00
2023-05-17T04:22:17.863Z,1060.00
2023-05-17T04:23:17.867Z,1059.00
2023-05-17T04:24:16.857Z,1061.00
2023-05-17T04:25:17.866Z,1061.00
2023-05-17T04:26:17.940Z,1059.00
2023-05-17T04:27:16.835Z,1060.00
2023-05-17T04:28:17.833Z,1060.00
2023-05-17T04:29:16.808Z,1058.00
2023-05-17T04:30:16.810Z,1059.00
2023-05-17T04:31:17.803Z,1060.00
2023-05-17T04:32:16.798Z,1058.00
2023-05-17T04:33:17.899Z,1057.00
2023-05-17T04:34:16.973Z,1059.00
2023-05-17T04:35:16.976Z,1053.00
2023-05-17T04:36:18.030Z,1052.00
2023-05-17T04:37:18.085Z,1051.00
2023-05-17T04:38:17.160Z,1052.00
2023-05-17T04:39:17.224Z,1052.00
2023-05-17T04:40:18.306Z,1051.00
2023-05-17T04:41:17.331Z,1045.00
2023-05-17T04:42:18.546Z,1040.00
2023-05-17T04:43:18.440Z,1040.00
2023-05-17T04:44:17.514Z,1037.00
2023-05-17T04:45:17.574Z,1037.00
2023-05-17T04:46:17.611Z,1036.00
2023-05-17T04:47:18.674Z,1034.00
2023-05-17T04:48:17.787Z,1036.00
2023-05-17T04:49:18.794Z,1038.00
2023-05-17T04:50:17.854Z,1039.00
2023-05-17T04:51:18.929Z,1038.00
2023-05-17T04:52:19.007Z,1040.00
2023-05-17T04:53:19.068Z,1038.00
2023-05-17T04:54:18.109Z,1038.00
2023-05-17T04:55:19.188Z,1041.00
2023-05-17T04:56:18.217Z,1045.00
2023-05-17T04:57:18.309Z,1046.00
2023-05-17T04:58:19.543Z,1047.00
2023-05-17T04:59:18.401Z,1047.00
2023-05-17T05:00:19.465Z,1046.00
2023-05-17T05:01:19.528Z,1047.00
2023-05-17T05:02:18.582Z,1049.00
2023-05-17T05:03:19.631Z,1048.00
2023-05-17T05:04:19.750Z,1043.00
2023-05-17T05:05:18.756Z,1041.00
2023-05-17T05:06:19.798Z,1039.00
2023-05-17T05:07:19.956Z,1038.00
2023-05-17T05:08:19.916Z,1039.00
2023-05-17T05:09:19.002Z,1039.00
2023-05-17T05:10:20.048Z,1041.00
2023-05-17T05:11:20.103Z,1041.00
2023-05-17T05:12:20.152Z,1040.00
2023-05-17T05:13:19.227Z,1041.00
2023-05-17T05:14:19.372Z,1038.00
2023-05-17T05:15:19.386Z,1039.00
2023-05-17T05:16:20.419Z,1041.00
2023-05-17T05:17:19.486Z,1040.00
2023-05-17T05:18:20.601Z,1040.00
2023-05-17T05:19:20.706Z,1037.00
2023-05-17T05:20:20.649Z,1037.00
2023-05-17T05:21:20.715Z,1035.00
2023-05-17T05:22:20.780Z,1035.00
2023-05-17T05:23:20.817Z,1034.00
2023-05-17T05:24:19.906Z,1033.00
2023-05-17T05:25:20.985Z,1032.00
2023-05-17T05:26:19.954Z,1031.00
2023-05-17T05:27:21.010Z,1028.00
2023-05-17T05:28:20.060Z,1028.00
2023-05-17T05:29:21.129Z,1028.00
2023-05-17T05:30:20.284Z,1030.00
2023-05-17T05:31:20.250Z,1034.00
2023-05-17T05:32:20.295Z,1036.00
2023-05-17T05:33:21.466Z,1040.00
2023-05-17T05:34:20.401Z,1041.00
2023-05-17T05:35:20.495Z,1050.00
2023-05-17T05:36:20.507Z,1057.00
2023-05-17T05:37:20.578Z,1058.00
2023-05-17T05:38:20.626Z,1064.00
2023-05-17T05:39:21.688Z,1070.00
2023-05-17T05:40:20.827Z,1075.00
2023-05-17T05:41:21.817Z,1076.00
2023-05-17T05:42:20.897Z,1081.00
2023-05-17T05:43:21.949Z,1080.00
2023-05-17T05:44:22.993Z,1088.00
2023-05-17T05:45:21.003Z,1093.00
2023-05-17T05:46:21.138Z,1100.00
2023-05-17T05:47:20.986Z,1103.00
2023-05-17T05:48:22.053Z,1107.00
2023-05-17T05:49:21.962Z,1112.00
2023-05-17T05:50:20.961Z,1119.00
2023-05-17T05:51:22.698Z,1133.00
2023-05-17T05:52:21.990Z,1181.00
2023-05-17T05:53:21.934Z,1180.00
2023-05-17T05:54:20.949Z,1186.00
2023-05-17T05:55:20.950Z,1210.00
2023-05-17T05:56:21.931Z,1298.00
2023-05-17T05:57:20.925Z,1327.00
2023-05-17T05:58:21.980Z,1326.00
2023-05-17T05:59:20.924Z,1328.00
2023-05-17T06:00:21.945Z,1331.00
2023-05-17T06:01:22.212Z,1352.00
2023-05-17T06:02:22.086Z,1394.00
2023-05-17T06:03:20.875Z,1430.00
2023-05-17T06:04:29.781Z,1459.00
2023-05-17T06:05:21.944Z,1479.00
2023-05-17T06:06:20.948Z,1494.00
2023-05-17T06:07:21.869Z,1515.00
2023-05-17T06:08:21.849Z,1535.00
2023-05-17T06:09:20.843Z,1557.00
2023-05-17T06:10:21.954Z,1579.00
2023-05-17T06:11:21.814Z,1603.00
2023-05-17T06:12:20.806Z,1633.00
2023-05-17T06:13:21.803Z,1667.00
2023-05-17T06:14:21.789Z,1679.00
2023-05-17T06:15:21.775Z,1697.00
2023-05-17T06:16:21.777Z,1715.00
2023-05-17T06:17:21.830Z,1739.00
2023-05-17T06:18:20.922Z,1772.00
2023-05-17T06:19:21.899Z,1792.00
2023-05-17T06:20:20.813Z,1808.00
2023-05-17T06:21:21.756Z,1828.00
2023-05-17T06:22:21.734Z,1848.00
2023-05-17T06:23:21.734Z,1867.00
2023-05-17T06:24:21.747Z,1897.00
2023-05-17T06:25:21.764Z,1912.00
2023-05-17T06:26:21.719Z,1928.00
2023-05-17T06:27:21.706Z,1983.00
2023-05-17T06:28:20.724Z,1992.00
2023-05-17T06:29:21.740Z,2012.00
2023-05-17T06:30:20.696Z,2037.00
2023-05-17T06:31:21.493Z,2054.00
2023-05-17T06:32:21.675Z,2078.00
2023-05-17T06:33:21.767Z,2096.00
2023-05-17T06:34:21.758Z,2111.00
2023-05-17T06:35:20.676Z,2132.00
2023-05-17T06:36:21.677Z,2198.00
2023-05-17T06:37:21.733Z,2207.00
2023-05-17T06:38:21.835Z,2221.00
2023-05-17T06:39:21.812Z,2233.00
2023-05-17T06:40:20.866Z,2253.00
2023-05-17T06:41:21.919Z,2271.00
2023-05-17T06:42:20.924Z,2303.00
2023-05-17T06:43:20.963Z,2318.00
2023-05-17T06:44:22.002Z,2343.00
2023-05-17T06:45:22.035Z,2361.00
2023-05-17T06:46:21.357Z,2387.00
2023-05-17T06:47:22.114Z,2442.00
2023-05-17T06:48:22.209Z,2455.00
2023-05-17T06:49:21.142Z,2470.00
2023-05-17T06:50:21.357Z,2490.00
2023-05-17T06:51:22.500Z,2530.00
2023-05-17T06:52:21.224Z,2553.00
2023-05-17T06:53:21.277Z,2566.00
2023-05-17T06:54:22.311Z,2586.00
2023-05-17T06:55:21.370Z,2599.00
2023-05-17T06:56:21.485Z,2601.00
2023-05-17T06:57:22.426Z,2608.00
2023-05-17T06:58:22.474Z,2621.00
2023-05-17T06:59:21.480Z,2682.00
2023-05-17T07:00:21.503Z,2707.00
2023-05-17T07:01:21.545Z,2730.00
2023-05-17T07:02:21.574Z,2750.00
2023-05-17T07:03:22.683Z,2769.00
2023-05-17T07:04:22.882Z,2796.00
2023-05-17T07:05:22.717Z,2862.00
2023-05-17T07:06:22.814Z,2888.00
2023-05-17T07:07:22.650Z,2906.00
2023-05-17T07:08:22.672Z,2931.00
2023-05-17T07:09:21.691Z,2959.00
2023-05-17T07:10:21.717Z,2972.00
2023-05-17T07:11:22.719Z,2991.00
2023-05-17T07:12:22.837Z,3008.00
2023-05-17T07:13:23.575Z,3026.00
2023-05-17T07:14:22.198Z,3090.00
2023-05-17T07:15:21.727Z,3105.00
2023-05-17T07:16:22.721Z,3109.00
2023-05-17T07:17:22.730Z,3126.00
2023-05-17T07:18:21.775Z,3141.00
2023-05-17T07:19:21.847Z,3154.00
2023-05-17T07:20:22.719Z,3199.00
2023-05-17T07:21:21.716Z,3220.00
2023-05-17T07:22:22.778Z,3232.00
2023-05-17T07:23:22.675Z,3251.00
2023-05-17T07:24:22.672Z,3258.00
2023-05-17T07:25:22.690Z,3273.00
2023-05-17T07:26:21.681Z,3298.00
2023-05-17T07:27:21.653Z,3327.00
2023-05-17T07:28:22.634Z,3345.00
2023-05-17T07:29:21.628Z,3364.00
2023-05-17T07:30:22.649Z,3379.00
2023-05-17T07:31:21.635Z,3400.00
2023-05-17T07:32:21.613Z,3421.00
2023-05-17T07:33:22.606Z,3441.00
2023-05-17T07:34:22.668Z,3451.00
2023-05-17T07:35:22.615Z,3470.00
2023-05-17T07:36:21.644Z,3494.00
2023-05-17T07:37:21.593Z,3513.00
2023-05-17T07:38:22.698Z,3537.00
2023-05-17T07:39:22.571Z,3557.00
2023-05-17T07:40:22.564Z,3576.00
2023-05-17T07:41:22.586Z,3593.00
2023-05-17T07:42:22.554Z,3618.00
2023-05-17T07:43:22.557Z,3643.00
2023-05-17T07:44:22.598Z,3681.00
2023-05-17T07:45:22.521Z,3706.00
2023-05-17T07:46:22.565Z,3714.00
2023-05-17T07:47:22.536Z,3728.00
2023-05-17T07:48:22.725Z,3736.00
2023-05-17T07:49:21.569Z,3733.00
2023-05-17T07:50:21.503Z,3718.00
2023-05-17T07:51:22.522Z,3725.00
2023-05-17T07:52:22.486Z,3738.00
2023-05-17T07:53:22.518Z,3741.00
2023-05-17T07:54:22.577Z,3749.00
2023-05-17T07:55:22.465Z,3759.00
2023-05-17T07:56:21.451Z,3761.00
2023-05-17T07:57:22.495Z,3759.00
2023-05-17T07:58:21.432Z,3760.00
2023-05-17T07:59:23.440Z,3755.00
2023-05-17T08:00:21.441Z,3753.00
2023-05-17T08:01:21.497Z,3752.00
2023-05-17T08:02:22.413Z,3756.00
2023-05-17T08:03:22.411Z,3760.00
2023-05-17T08:04:22.529Z,3767.00
2023-05-17T08:05:22.407Z,3767.00
2023-05-17T08:06:22.506Z,3769.00
2023-05-17T08:07:22.379Z,3768.00
2023-05-17T08:08:22.380Z,3760.00
2023-05-17T08:09:21.362Z,3763.00
2023-05-17T08:10:21.630Z,3761.00
2023-05-17T08:11:22.357Z,3761.00
2023-05-17T08:12:21.398Z,3755.00
2023-05-17T08:13:22.446Z,3752.00
2023-05-17T08:14:22.499Z,3756.00
2023-05-17T08:15:22.594Z,3762.00
2023-05-17T08:16:22.617Z,3773.00
2023-05-17T08:17:22.716Z,3787.00
2023-05-17T08:18:22.922Z,3796.00
2023-05-17T08:19:21.968Z,3805.00
2023-05-17T08:20:21.838Z,3810.00
2023-05-17T08:21:22.909Z,3809.00
2023-05-17T08:22:21.974Z,3827.00
2023-05-17T08:23:23.051Z,3822.00
2023-05-17T08:24:23.108Z,3822.00
2023-05-17T08:25:22.161Z,3835.00
2023-05-17T08:26:23.248Z,3813.00
2023-05-17T08:27:22.277Z,3787.00
2023-05-17T08:28:22.347Z,3778.00
2023-05-17T08:29:22.400Z,3780.00
2023-05-17T08:30:28.848Z,3780.00
2023-05-17T08:31:23.446Z,3780.00
2023-05-17T08:32:22.482Z,3767.00
2023-05-17T08:33:23.565Z,3760.00
2023-05-17T08:34:23.424Z,3780.00
2023-05-17T08:35:22.421Z,3793.00
2023-05-17T08:36:23.418Z,3774.00
2023-05-17T08:37:23.451Z,3886.00
2023-05-17T08:38:22.487Z,3867.00
2023-05-17T08:39:23.425Z,3817.00
2023-05-17T08:40:23.534Z,3784.00
2023-05-17T08:41:23.381Z,3795.00
2023-05-17T08:42:22.388Z,3792.00
2023-05-17T08:43:22.355Z,3756.00
2023-05-17T08:44:23.346Z,3740.00
2023-05-17T08:45:23.332Z,3755.00
2023-05-17T08:46:23.551Z,3759.00
2023-05-17T08:47:22.337Z,3763.00
2023-05-17T08:48:23.447Z,3746.00
2023-05-17T08:49:22.419Z,3723.00
2023-05-17T08:50:22.385Z,3899.00
2023-05-17T08:51:23.555Z,4060.00
2023-05-17T08:52:23.294Z,4059.00
2023-05-17T08:53:23.346Z,3998.00
2023-05-17T08:54:23.295Z,3815.00
2023-05-17T08:55:23.272Z,3495.00
2023-05-17T08:56:23.552Z,3360.00
2023-05-17T08:57:22.253Z,3651.00
2023-05-17T08:58:23.312Z,3607.00
2023-05-17T08:59:23.228Z,3518.00
2023-05-17T09:00:23.237Z,3521.00
2023-05-17T09:01:24.362Z,3532.00
2023-05-17T09:02:23.235Z,3540.00
2023-05-17T09:03:23.257Z,3551.00
2023-05-17T09:04:23.209Z,3570.00
2023-05-17T09:05:23.247Z,3572.00
2023-05-17T09:06:23.235Z,3567.00
2023-05-17T09:07:22.180Z,3567.00
2023-05-17T09:08:22.178Z,3565.00
2023-05-17T09:09:23.160Z,3557.00
2023-05-17T09:10:23.158Z,3551.00
2023-05-17T09:11:22.161Z,3552.00
2023-05-17T09:12:25.521Z,3559.00
2023-05-17T09:13:23.125Z,3561.00
2023-05-17T09:14:22.189Z,3558.00
2023-05-17T09:15:23.125Z,3556.00
2023-05-17T09:16:22.148Z,3554.00
2023-05-17T09:17:23.188Z,3558.00
2023-05-17T09:18:23.163Z,3559.00
2023-05-17T09:19:23.213Z,3556.00
2023-05-17T09:20:23.278Z,3546.00
2023-05-17T09:21:23.085Z,3543.00
2023-05-17T09:22:22.060Z,3542.00
2023-05-17T09:23:22.066Z,3548.00
2023-05-17T09:24:25.166Z,3541.00
2023-05-17T09:25:23.052Z,3540.00
2023-05-17T09:26:23.040Z,3545.00
2023-05-17T09:27:22.017Z,3552.00
2023-05-17T09:28:22.033Z,3552.00
2023-05-17T09:29:23.020Z,3552.00
2023-05-17T09:30:24.625Z,3552.00
2023-05-17T09:31:21.999Z,3546.00
2023-05-17T09:32:23.090Z,3535.00
2023-05-17T09:33:23.053Z,3364.00
2023-05-17T09:34:23.020Z,3236.00
2023-05-17T09:35:22.982Z,3244.00
2023-05-17T09:36:22.973Z,2786.00
2023-05-17T09:37:22.977Z,2288.00
2023-05-17T09:38:24.199Z,2246.00
2023-05-17T09:39:22.943Z,2220.00
2023-05-17T09:40:22.951Z,1929.00
2023-05-17T09:41:22.938Z,1962.00
2023-05-17T09:42:22.925Z,1769.00
2023-05-17T09:43:22.928Z,1820.00
2023-05-17T09:44:23.520Z,1778.00
2023-05-17T09:45:21.915Z,1786.00
2023-05-17T09:46:22.974Z,1821.00
2023-05-17T09:47:21.926Z,1783.00
2023-05-17T09:48:22.963Z,1685.00
2023-05-17T09:49:22.940Z,1640.00
2023-05-17T09:50:24.587Z,1631.00
2023-05-17T09:51:23.056Z,1583.00
2023-05-17T09:52:22.851Z,1442.00
2023-05-17T09:53:22.859Z,1465.00
2023-05-17T09:54:21.841Z,1394.00
2023-05-17T09:55:22.843Z,1386.00
2023-05-17T09:56:22.857Z,1260.00
2023-05-17T09:57:22.820Z,1341.00
2023-05-17T09:58:21.866Z,1322.00
2023-05-17T09:59:22.822Z,1260.00
2023-05-17T10:00:22.792Z,1154.00
2023-05-17T10:01:22.794Z,1191.00
2023-05-17T10:02:22.848Z,1249.00
2023-05-17T10:03:22.915Z,1302.00
2023-05-17T10:04:22.786Z,1189.00
2023-05-17T10:05:21.797Z,899.00
2023-05-17T10:06:38.347Z,909.00
2023-05-17T10:07:22.751Z,905.00
2023-05-17T10:08:21.730Z,1030.00
2023-05-17T10:09:22.870Z,1016.00
2023-05-17T10:10:21.739Z,1125.00
2023-05-17T10:11:22.724Z,1010.00
2023-05-17T10:12:23.822Z,1014.00
2023-05-17T10:13:22.704Z,973.00
2023-05-17T10:14:23.156Z,994.00
2023-05-17T10:15:22.721Z,989.00
2023-05-17T10:16:22.677Z,967.00
2023-05-17T10:17:22.672Z,939.00
2023-05-17T10:18:22.790Z,978.00
2023-05-17T10:19:22.773Z,1021.00
2023-05-17T10:20:22.661Z,1069.00
2023-05-17T10:21:22.665Z,1082.00
2023-05-17T10:22:23.920Z,1092.00
2023-05-17T10:23:22.633Z,1101.00
2023-05-17T10:24:21.752Z,1126.00
2023-05-17T10:25:22.624Z,1144.00
2023-05-17T10:26:21.612Z,1212.00
2023-05-17T10:27:22.689Z,1229.00
2023-05-17T10:28:22.764Z,1251.00
2023-05-17T10:29:22.774Z,1273.00
2023-05-17T10:30:21.834Z,1590.00
2023-05-17T10:31:21.892Z,1867.00
2023-05-17T10:32:21.959Z,1973.00
2023-05-17T10:33:23.116Z,1765.00
2023-05-17T10:34:23.137Z,2012.00
2023-05-17T10:35:22.095Z,2106.00
2023-05-17T10:36:23.104Z,2119.00
2023-05-17T10:37:23.123Z,2158.00
2023-05-17T10:38:28.831Z,1757.00
2023-05-17T10:39:23.145Z,1721.00
2023-05-17T10:40:23.125Z,1722.00
2023-05-17T10:41:23.150Z,1740.00
2023-05-17T10:42:23.577Z,1871.00
2023-05-17T10:43:23.102Z,1851.00
2023-05-17T10:44:23.120Z,1865.00
2023-05-17T10:45:23.085Z,1934.00
2023-05-17T10:46:23.073Z,1970.00
2023-05-17T10:47:23.095Z,1999.00
2023-05-17T10:48:23.135Z,2012.00
2023-05-17T10:49:24.798Z,2018.00
2023-05-17T10:50:23.082Z,2064.00
2023-05-17T10:51:22.062Z,2085.00
2023-05-17T10:52:23.037Z,2127.00
2023-05-17T10:53:23.025Z,2149.00
2023-05-17T10:54:23.033Z,2163.00
2023-05-17T10:55:22.102Z,2184.00
2023-05-17T10:56:22.010Z,2218.00
2023-05-17T10:57:23.010Z,2235.00
2023-05-17T10:58:22.011Z,2256.00
2023-05-17T10:59:22.237Z,2274.00
2023-05-17T11:00:23.018Z,2302.00
2023-05-17T11:01:22.967Z,2323.00
2023-05-17T11:02:23.024Z,2339.00
2023-05-17T11:03:22.984Z,2353.00
2023-05-17T11:04:22.046Z,2412.00
2023-05-17T11:05:23.011Z,2432.00
2023-05-17T11:06:25.248Z,2445.00
2023-05-17T11:07:22.940Z,2457.00
2023-05-17T11:08:22.918Z,2468.00
2023-05-17T11:09:22.922Z,2493.00
2023-05-17T11:10:21.913Z,2519.00
2023-05-17T11:11:22.919Z,2544.00
2023-05-17T11:12:22.890Z,2564.00
2023-05-17T11:13:21.889Z,2579.00
2023-05-17T11:14:22.883Z,2594.00
2023-05-17T11:15:21.879Z,2610.00
2023-05-17T11:16:22.876Z,2649.00
2023-05-17T11:17:22.878Z,2664.00
2023-05-17T11:18:30.720Z,2683.00
2023-05-17T11:19:23.023Z,2699.00
2023-05-17T11:20:22.930Z,2725.00
2023-05-17T11:21:22.848Z,2752.00
2023-05-17T11:22:21.880Z,2765.00
2023-05-17T11:23:22.817Z,2790.00
2023-05-17T11:24:22.824Z,2820.00
2023-05-17T11:25:22.804Z,2843.00
2023-05-17T11:26:21.816Z,2864.00
2023-05-17T11:27:21.800Z,2878.00
2023-05-17T11:28:22.827Z,2891.00
2023-05-17T11:29:22.796Z,2916.00
2023-05-17T11:30:22.803Z,2937.00
2023-05-17T11:31:22.794Z,2969.00
2023-05-17T11:32:22.811Z,2992.00
2023-05-17T11:33:32.949Z,3006.00
2023-05-17T11:34:22.785Z,3030.00
2023-05-17T11:35:22.766Z,3057.00
2023-05-17T11:36:22.758Z,3096.00
2023-05-17T11:37:22.738Z,3108.00
2023-05-17T11:38:22.791Z,3114.00
2023-05-17T11:39:22.717Z,3106.00
2023-05-17T11:40:21.729Z,3101.00
2023-05-17T11:41:26.984Z,3100.00
2023-05-17T11:42:22.981Z,3091.00
2023-05-17T11:43:22.012Z,3088.00
2023-05-17T11:44:23.042Z,3081.00
2023-05-17T11:45:24.821Z,3079.00
2023-05-17T11:46:23.047Z,3083.00
2023-05-17T11:47:23.099Z,3089.00
2023-05-17T11:48:23.143Z,3092.00
2023-05-17T11:49:34.134Z,3092.00
2023-05-17T11:50:23.030Z,3086.00
2023-05-17T11:51:24.964Z,3083.00
2023-05-17T11:52:22.038Z,3080.00
2023-05-17T11:53:23.013Z,3080.00
2023-05-17T11:54:22.045Z,3079.00
2023-05-17T11:55:21.988Z,3080.00
2023-05-17T11:56:29.003Z,3084.00
2023-05-17T11:57:22.999Z,3080.00
2023-05-17T11:58:22.966Z,3075.00
2023-05-17T11:59:21.982Z,3073.00
2023-05-17T12:00:22.967Z,3077.00
2023-05-17T12:01:21.952Z,3079.00
2023-05-17T12:02:21.983Z,3078.00
2023-05-17T12:03:22.986Z,3082.00
2023-05-17T12:04:22.004Z,3087.00
2023-05-17T12:05:22.933Z,3086.00
2023-05-17T12:06:21.964Z,3084.00